sensor_id;sensor_type;location;lat;lon;timestamp;P1;durP1;ratioP1;P2;durP2;ratioP2
7233;SDS011;3658;47.992;10.158;2023-04-06T00:00:25;3.77;;;3.33;;
7233;SDS011;3658;47.992;10.158;2023-04-06T00:02:52;3.63;;;3.00;;
7233;SDS011;3658;47.992;10.158;2023-04-06T00:05:19;3.37;;;3.07;;
7233;SDS011;3658;47.992;10.158;2023-04-06T00:07:48;2.80;;;2.60;;
7233;SDS011;3658;47.992;10.158;2023-04-06T00:10:15;3.50;;;3.10;;
7233;SDS011;3658;47.992;10.158;2023-04-06T00:12:42;3.50;;;3.10;;
7233;SDS011;3658;47.992;10.158;2023-04-06T00:15:10;3.73;;;3.17;;
7233;SDS011;3658;47.992;10.158;2023-04-06T00:17:38;3.37;;;2.90;;
7233;SDS011;3658;47.992;10.158;2023-04-06T00:20:06;3.43;;;2.93;;
7233;SDS011;3658;47.992;10.158;2023-04-06T00:22:33;3.70;;;3.10;;
7233;SDS011;3658;47.992;10.158;2023-04-06T00:25:00;3.30;;;2.80;;
7233;SDS011;3658;47.992;10.158;2023-04-06T00:27:28;3.03;;;2.73;;
7233;SDS011;3658;47.992;10.158;2023-04-06T00:29:55;5.30;;;2.40;;
7233;SDS011;3658;47.992;10.158;2023-04-06T00:32:22;3.67;;;3.17;;
7233;SDS011;3658;47.992;10.158;2023-04-06T00:34:50;3.20;;;2.77;;
7233;SDS011;3658;47.992;10.158;2023-04-06T00:37:17;3.23;;;2.93;;
7233;SDS011;3658;47.992;10.158;2023-04-06T00:39:45;3.00;;;2.70;;
7233;SDS011;3658;47.992;10.158;2023-04-06T00:42:12;2.77;;;2.57;;
7233;SDS011;3658;47.992;10.158;2023-04-06T00:44:39;3.47;;;2.73;;
7233;SDS011;3658;47.992;10.158;2023-04-06T00:47:07;2.97;;;2.70;;
7233;SDS011;3658;47.992;10.158;2023-04-06T00:49:34;3.23;;;2.93;;
7233;SDS011;3658;47.992;10.158;2023-04-06T00:52:03;3.03;;;2.60;;
7233;SDS011;3658;47.992;10.158;2023-04-06T00:54:30;2.93;;;2.60;;
7233;SDS011;3658;47.992;10.158;2023-04-06T00:56:57;2.93;;;2.63;;
7233;SDS011;3658;47.992;10.158;2023-04-06T00:59:24;3.10;;;2.70;;
7233;SDS011;3658;47.992;10.158;2023-04-06T01:01:52;3.07;;;2.70;;
7233;SDS011;3658;47.992;10.158;2023-04-06T01:04:20;3.00;;;2.70;;
7233;SDS011;3658;47.992;10.158;2023-04-06T01:06:47;2.50;;;2.30;;
7233;SDS011;3658;47.992;10.158;2023-04-06T01:09:16;3.70;;;2.73;;
7233;SDS011;3658;47.992;10.158;2023-04-06T01:11:43;2.87;;;2.40;;
7233;SDS011;3658;47.992;10.158;2023-04-06T01:14:10;2.67;;;2.47;;
7233;SDS011;3658;47.992;10.158;2023-04-06T01:16:37;2.90;;;2.60;;
7233;SDS011;3658;47.992;10.158;2023-04-06T01:19:07;3.87;;;2.50;;
7233;SDS011;3658;47.992;10.158;2023-04-06T01:21:35;3.43;;;3.10;;
7233;SDS011;3658;47.992;10.158;2023-04-06T01:24:04;2.60;;;2.33;;
7233;SDS011;3658;47.992;10.158;2023-04-06T01:26:32;2.80;;;2.50;;
7233;SDS011;3658;47.992;10.158;2023-04-06T01:29:00;3.87;;;2.50;;
7233;SDS011;3658;47.992;10.158;2023-04-06T01:31:27;2.53;;;2.33;;
7233;SDS011;3658;47.992;10.158;2023-04-06T01:33:55;3.17;;;2.70;;
7233;SDS011;3658;47.992;10.158;2023-04-06T01:36:22;2.60;;;2.40;;
7233;SDS011;3658;47.992;10.158;2023-04-06T01:38:50;2.83;;;2.53;;
7233;SDS011;3658;47.992;10.158;2023-04-06T01:41:18;3.07;;;2.50;;
7233;SDS011;3658;47.992;10.158;2023-04-06T01:43:46;3.93;;;2.70;;
7233;SDS011;3658;47.992;10.158;2023-04-06T01:46:13;3.07;;;2.63;;
7233;SDS011;3658;47.992;10.158;2023-04-06T01:48:41;3.03;;;2.63;;
7233;SDS011;3658;47.992;10.158;2023-04-06T01:51:08;2.80;;;2.50;;
7233;SDS011;3658;47.992;10.158;2023-04-06T01:53:35;2.60;;;2.13;;
7233;SDS011;3658;47.992;10.158;2023-04-06T01:56:02;2.80;;;2.50;;
7233;SDS011;3658;47.992;10.158;2023-04-06T01:58:31;2.63;;;2.40;;
7233;SDS011;3658;47.992;10.158;2023-04-06T02:00:58;3.00;;;2.73;;
7233;SDS011;3658;47.992;10.158;2023-04-06T02:03:25;2.30;;;2.10;;
7233;SDS011;3658;47.992;10.158;2023-04-06T02:05:52;2.90;;;2.40;;
7233;SDS011;3658;47.992;10.158;2023-04-06T02:08:19;2.73;;;2.33;;
7233;SDS011;3658;47.992;10.158;2023-04-06T02:10:46;2.57;;;2.30;;
7233;SDS011;3658;47.992;10.158;2023-04-06T02:13:13;2.63;;;2.40;;
7233;SDS011;3658;47.992;10.158;2023-04-06T02:15:45;2.47;;;2.27;;
7233;SDS011;3658;47.992;10.158;2023-04-06T02:18:16;2.80;;;2.50;;
7233;SDS011;3658;47.992;10.158;2023-04-06T02:20:43;2.70;;;2.50;;
7233;SDS011;3658;47.992;10.158;2023-04-06T02:23:11;2.90;;;2.60;;
7233;SDS011;3658;47.992;10.158;2023-04-06T02:25:38;2.23;;;2.03;;
7233;SDS011;3658;47.992;10.158;2023-04-06T02:28:05;2.83;;;2.40;;
7233;SDS011;3658;47.992;10.158;2023-04-06T02:30:32;2.30;;;2.10;;
7233;SDS011;3658;47.992;10.158;2023-04-06T02:33:01;2.40;;;2.20;;
7233;SDS011;3658;47.992;10.158;2023-04-06T02:35:28;2.20;;;2.00;;
7233;SDS011;3658;47.992;10.158;2023-04-06T02:37:55;2.30;;;2.10;;
7233;SDS011;3658;47.992;10.158;2023-04-06T02:40:22;2.90;;;2.00;;
7233;SDS011;3658;47.992;10.158;2023-04-06T02:42:49;2.50;;;2.30;;
7233;SDS011;3658;47.992;10.158;2023-04-06T02:45:16;2.40;;;2.20;;
7233;SDS011;3658;47.992;10.158;2023-04-06T02:47:44;2.27;;;2.00;;
7233;SDS011;3658;47.992;10.158;2023-04-06T02:50:12;2.50;;;2.20;;
7233;SDS011;3658;47.992;10.158;2023-04-06T02:52:40;3.37;;;2.40;;
7233;SDS011;3658;47.992;10.158;2023-04-06T02:55:07;2.60;;;2.40;;
7233;SDS011;3658;47.992;10.158;2023-04-06T02:57:35;1.90;;;1.80;;
7233;SDS011;3658;47.992;10.158;2023-04-06T03:00:02;3.30;;;2.30;;
7233;SDS011;3658;47.992;10.158;2023-04-06T03:02:30;2.90;;;2.50;;
7233;SDS011;3658;47.992;10.158;2023-04-06T03:04:57;2.10;;;1.90;;
7233;SDS011;3658;47.992;10.158;2023-04-06T03:07:25;2.47;;;2.00;;
7233;SDS011;3658;47.992;10.158;2023-04-06T03:09:52;2.87;;;2.37;;
7233;SDS011;3658;47.992;10.158;2023-04-06T03:12:19;2.20;;;2.00;;
7233;SDS011;3658;47.992;10.158;2023-04-06T03:14:46;2.67;;;2.03;;
7233;SDS011;3658;47.992;10.158;2023-04-06T03:17:13;2.53;;;2.27;;
7233;SDS011;3658;47.992;10.158;2023-04-06T03:19:40;2.50;;;2.30;;
7233;SDS011;3658;47.992;10.158;2023-04-06T03:22:07;3.17;;;2.17;;
7233;SDS011;3658;47.992;10.158;2023-04-06T03:24:36;2.33;;;2.13;;
7233;SDS011;3658;47.992;10.158;2023-04-06T03:27:03;2.10;;;1.90;;
7233;SDS011;3658;47.992;10.158;2023-04-06T03:29:31;4.00;;;2.00;;
7233;SDS011;3658;47.992;10.158;2023-04-06T03:31:58;2.87;;;2.30;;
7233;SDS011;3658;47.992;10.158;2023-04-06T03:34:25;2.47;;;2.00;;
7233;SDS011;3658;47.992;10.158;2023-04-06T03:36:52;2.30;;;2.03;;
7233;SDS011;3658;47.992;10.158;2023-04-06T03:39:19;1.90;;;1.77;;
7233;SDS011;3658;47.992;10.158;2023-04-06T03:41:48;2.20;;;2.00;;
7233;SDS011;3658;47.992;10.158;2023-04-06T03:44:15;2.30;;;2.10;;
7233;SDS011;3658;47.992;10.158;2023-04-06T03:46:42;3.03;;;2.20;;
7233;SDS011;3658;47.992;10.158;2023-04-06T03:49:09;2.50;;;2.30;;
7233;SDS011;3658;47.992;10.158;2023-04-06T03:51:36;2.43;;;2.23;;
7233;SDS011;3658;47.992;10.158;2023-04-06T03:54:03;2.97;;;2.20;;
7233;SDS011;3658;47.992;10.158;2023-04-06T03:56:30;2.20;;;2.00;;
7233;SDS011;3658;47.992;10.158;2023-04-06T03:58:58;2.80;;;2.50;;
7233;SDS011;3658;47.992;10.158;2023-04-06T04:01:26;2.33;;;2.13;;
7233;SDS011;3658;47.992;10.158;2023-04-06T04:03:54;2.70;;;2.17;;
7233;SDS011;3658;47.992;10.158;2023-04-06T04:06:21;2.20;;;1.90;;
7233;SDS011;3658;47.992;10.158;2023-04-06T04:08:48;2.70;;;2.30;;
7233;SDS011;3658;47.992;10.158;2023-04-06T04:11:15;2.80;;;1.93;;
7233;SDS011;3658;47.992;10.158;2023-04-06T04:13:42;2.30;;;2.10;;
7233;SDS011;3658;47.992;10.158;2023-04-06T04:16:11;2.27;;;2.07;;
7233;SDS011;3658;47.992;10.158;2023-04-06T04:18:38;2.77;;;2.30;;
7233;SDS011;3658;47.992;10.158;2023-04-06T04:21:05;2.30;;;2.10;;
7233;SDS011;3658;47.992;10.158;2023-04-06T04:23:32;2.00;;;1.80;;
7233;SDS011;3658;47.992;10.158;2023-04-06T04:25:59;2.40;;;2.20;;
7233;SDS011;3658;47.992;10.158;2023-04-06T04:28:26;2.40;;;2.10;;
7233;SDS011;3658;47.992;10.158;2023-04-06T04:30:53;2.30;;;2.10;;
7233;SDS011;3658;47.992;10.158;2023-04-06T04:33:21;2.40;;;2.20;;
7233;SDS011;3658;47.992;10.158;2023-04-06T04:35:49;2.43;;;2.23;;
7233;SDS011;3658;47.992;10.158;2023-04-06T04:38:16;2.20;;;2.00;;
7233;SDS011;3658;47.992;10.158;2023-04-06T04:40:43;2.43;;;2.23;;
7233;SDS011;3658;47.992;10.158;2023-04-06T04:43:10;2.27;;;2.07;;
7233;SDS011;3658;47.992;10.158;2023-04-06T04:45:37;2.33;;;2.07;;
7233;SDS011;3658;47.992;10.158;2023-04-06T04:48:04;2.23;;;2.03;;
7233;SDS011;3658;47.992;10.158;2023-04-06T04:50:34;2.20;;;2.00;;
7233;SDS011;3658;47.992;10.158;2023-04-06T04:53:01;2.37;;;2.03;;
7233;SDS011;3658;47.992;10.158;2023-04-06T04:55:30;1.80;;;1.70;;
7233;SDS011;3658;47.992;10.158;2023-04-06T04:57:57;1.80;;;1.70;;
7233;SDS011;3658;47.992;10.158;2023-04-06T05:00:24;2.13;;;1.93;;
7233;SDS011;3658;47.992;10.158;2023-04-06T05:02:51;2.00;;;1.80;;
7233;SDS011;3658;47.992;10.158;2023-04-06T05:05:18;2.03;;;1.80;;
7233;SDS011;3658;47.992;10.158;2023-04-06T05:07:47;1.63;;;1.53;;
7233;SDS011;3658;47.992;10.158;2023-04-06T05:10:14;2.00;;;1.80;;
7233;SDS011;3658;47.992;10.158;2023-04-06T05:12:41;1.77;;;1.67;;
7233;SDS011;3658;47.992;10.158;2023-04-06T05:15:09;1.90;;;1.70;;
7233;SDS011;3658;47.992;10.158;2023-04-06T05:17:36;1.80;;;1.70;;
7233;SDS011;3658;47.992;10.158;2023-04-06T05:20:04;2.20;;;1.57;;
7233;SDS011;3658;47.992;10.158;2023-04-06T05:22:32;1.90;;;1.80;;
7233;SDS011;3658;47.992;10.158;2023-04-06T05:25:00;1.80;;;1.70;;
7233;SDS011;3658;47.992;10.158;2023-04-06T05:27:28;1.80;;;1.70;;
7233;SDS011;3658;47.992;10.158;2023-04-06T05:29:55;1.57;;;1.47;;
7233;SDS011;3658;47.992;10.158;2023-04-06T05:32:22;2.00;;;1.80;;
7233;SDS011;3658;47.992;10.158;2023-04-06T05:34:50;1.93;;;1.60;;
7233;SDS011;3658;47.992;10.158;2023-04-06T05:37:17;1.73;;;1.57;;
7233;SDS011;3658;47.992;10.158;2023-04-06T05:39:44;1.60;;;1.50;;
7233;SDS011;3658;47.992;10.158;2023-04-06T05:42:13;1.30;;;1.20;;
7233;SDS011;3658;47.992;10.158;2023-04-06T05:44:40;1.60;;;1.50;;
7233;SDS011;3658;47.992;10.158;2023-04-06T05:47:07;1.50;;;1.40;;
7233;SDS011;3658;47.992;10.158;2023-04-06T05:49:34;1.67;;;1.57;;
7233;SDS011;3658;47.992;10.158;2023-04-06T05:52:01;1.77;;;1.67;;
7233;SDS011;3658;47.992;10.158;2023-04-06T05:54:29;1.47;;;1.37;;
7233;SDS011;3658;47.992;10.158;2023-04-06T05:56:56;2.10;;;1.70;;
7233;SDS011;3658;47.992;10.158;2023-04-06T05:59:24;9.17;;;2.33;;
7233;SDS011;3658;47.992;10.158;2023-04-06T06:01:51;3.53;;;2.20;;
7233;SDS011;3658;47.992;10.158;2023-04-06T06:04:18;6.57;;;2.60;;
7233;SDS011;3658;47.992;10.158;2023-04-06T06:06:45;3.97;;;2.07;;
7233;SDS011;3658;47.992;10.158;2023-04-06T06:09:13;2.70;;;1.97;;
7233;SDS011;3658;47.992;10.158;2023-04-06T06:11:40;2.20;;;2.00;;
7233;SDS011;3658;47.992;10.158;2023-04-06T06:14:07;18.20;;;2.20;;
7233;SDS011;3658;47.992;10.158;2023-04-06T06:16:35;2.53;;;1.90;;
7233;SDS011;3658;47.992;10.158;2023-04-06T06:19:02;3.53;;;2.20;;
7233;SDS011;3658;47.992;10.158;2023-04-06T06:21:30;3.10;;;2.00;;
7233;SDS011;3658;47.992;10.158;2023-04-06T06:23:57;3.73;;;2.17;;
7233;SDS011;3658;47.992;10.158;2023-04-06T06:26:25;2.73;;;1.83;;
7233;SDS011;3658;47.992;10.158;2023-04-06T06:28:52;2.60;;;2.00;;
7233;SDS011;3658;47.992;10.158;2023-04-06T06:31:19;1.97;;;1.80;;
7233;SDS011;3658;47.992;10.158;2023-04-06T06:33:49;2.53;;;2.20;;
7233;SDS011;3658;47.992;10.158;2023-04-06T06:36:16;5.47;;;2.17;;
7233;SDS011;3658;47.992;10.158;2023-04-06T06:38:43;2.40;;;1.90;;
7233;SDS011;3658;47.992;10.158;2023-04-06T06:41:10;2.30;;;2.10;;
7233;SDS011;3658;47.992;10.158;2023-04-06T06:43:38;1.97;;;1.83;;
7233;SDS011;3658;47.992;10.158;2023-04-06T06:46:05;3.03;;;2.10;;
7233;SDS011;3658;47.992;10.158;2023-04-06T06:48:32;2.40;;;2.17;;
7233;SDS011;3658;47.992;10.158;2023-04-06T06:51:00;2.73;;;2.20;;
7233;SDS011;3658;47.992;10.158;2023-04-06T06:53:27;3.70;;;2.37;;
7233;SDS011;3658;47.992;10.158;2023-04-06T06:55:55;2.50;;;2.07;;
7233;SDS011;3658;47.992;10.158;2023-04-06T06:58:22;2.40;;;2.20;;
7233;SDS011;3658;47.992;10.158;2023-04-06T07:00:49;2.33;;;2.13;;
7233;SDS011;3658;47.992;10.158;2023-04-06T07:03:16;2.43;;;2.10;;
7233;SDS011;3658;47.992;10.158;2023-04-06T07:05:45;3.10;;;2.20;;
7233;SDS011;3658;47.992;10.158;2023-04-06T07:08:19;3.70;;;2.00;;
7233;SDS011;3658;47.992;10.158;2023-04-06T07:10:46;3.23;;;1.93;;
7233;SDS011;3658;47.992;10.158;2023-04-06T07:13:13;2.90;;;2.23;;
7233;SDS011;3658;47.992;10.158;2023-04-06T07:15:44;2.73;;;2.20;;
7233;SDS011;3658;47.992;10.158;2023-04-06T07:18:11;2.30;;;2.10;;
7233;SDS011;3658;47.992;10.158;2023-04-06T07:20:38;2.87;;;2.30;;
7233;SDS011;3658;47.992;10.158;2023-04-06T07:23:05;2.63;;;2.13;;
7233;SDS011;3658;47.992;10.158;2023-04-06T07:25:34;2.57;;;2.37;;
7233;SDS011;3658;47.992;10.158;2023-04-06T07:28:01;2.40;;;2.20;;
7233;SDS011;3658;47.992;10.158;2023-04-06T07:30:28;2.30;;;2.10;;
7233;SDS011;3658;47.992;10.158;2023-04-06T07:32:55;2.97;;;2.23;;
7233;SDS011;3658;47.992;10.158;2023-04-06T07:35:24;2.40;;;2.10;;
7233;SDS011;3658;47.992;10.158;2023-04-06T07:37:52;2.80;;;2.23;;
7233;SDS011;3658;47.992;10.158;2023-04-06T07:40:19;2.13;;;1.93;;
7233;SDS011;3658;47.992;10.158;2023-04-06T07:42:48;2.10;;;1.90;;
7233;SDS011;3658;47.992;10.158;2023-04-06T07:45:15;3.10;;;1.70;;
7233;SDS011;3658;47.992;10.158;2023-04-06T07:47:43;2.10;;;1.90;;
7233;SDS011;3658;47.992;10.158;2023-04-06T07:50:10;2.00;;;1.80;;
7233;SDS011;3658;47.992;10.158;2023-04-06T07:52:38;2.80;;;2.30;;
7233;SDS011;3658;47.992;10.158;2023-04-06T07:55:05;2.00;;;1.80;;
7233;SDS011;3658;47.992;10.158;2023-04-06T07:57:32;2.10;;;1.90;;
7233;SDS011;3658;47.992;10.158;2023-04-06T08:00:01;2.30;;;2.10;;
7233;SDS011;3658;47.992;10.158;2023-04-06T08:02:29;3.40;;;1.90;;
7233;SDS011;3658;47.992;10.158;2023-04-06T08:04:56;3.53;;;2.00;;
7233;SDS011;3658;47.992;10.158;2023-04-06T08:07:23;3.10;;;2.27;;
7233;SDS011;3658;47.992;10.158;2023-04-06T08:09:51;2.37;;;1.80;;
7233;SDS011;3658;47.992;10.158;2023-04-06T08:12:18;3.90;;;2.07;;
7233;SDS011;3658;47.992;10.158;2023-04-06T08:14:45;3.93;;;2.00;;
7233;SDS011;3658;47.992;10.158;2023-04-06T08:17:14;6.73;;;2.17;;
7233;SDS011;3658;47.992;10.158;2023-04-06T08:19:42;2.77;;;2.13;;
7233;SDS011;3658;47.992;10.158;2023-04-06T08:22:09;3.93;;;1.90;;
7233;SDS011;3658;47.992;10.158;2023-04-06T08:24:36;2.03;;;1.80;;
7233;SDS011;3658;47.992;10.158;2023-04-06T08:27:03;3.57;;;1.90;;
7233;SDS011;3658;47.992;10.158;2023-04-06T08:29:30;2.07;;;1.80;;
7233;SDS011;3658;47.992;10.158;2023-04-06T08:31:57;2.60;;;1.60;;
7233;SDS011;3658;47.992;10.158;2023-04-06T08:34:26;2.53;;;2.10;;
7233;SDS011;3658;47.992;10.158;2023-04-06T08:36:53;4.53;;;1.80;;
7233;SDS011;3658;47.992;10.158;2023-04-06T08:39:20;2.53;;;1.97;;
7233;SDS011;3658;47.992;10.158;2023-04-06T08:41:50;2.23;;;1.80;;
7233;SDS011;3658;47.992;10.158;2023-04-06T08:44:22;2.40;;;2.00;;
7233;SDS011;3658;47.992;10.158;2023-04-06T08:46:49;2.10;;;1.93;;
7233;SDS011;3658;47.992;10.158;2023-04-06T08:49:17;4.10;;;2.03;;
7233;SDS011;3658;47.992;10.158;2023-04-06T08:51:47;3.27;;;2.20;;
7233;SDS011;3658;47.992;10.158;2023-04-06T08:54:14;2.10;;;1.90;;
7233;SDS011;3658;47.992;10.158;2023-04-06T08:56:43;2.40;;;2.00;;
7233;SDS011;3658;47.992;10.158;2023-04-06T08:59:10;2.00;;;1.80;;
7233;SDS011;3658;47.992;10.158;2023-04-06T09:01:38;2.00;;;1.80;;
7233;SDS011;3658;47.992;10.158;2023-04-06T09:04:07;2.10;;;1.90;;
7233;SDS011;3658;47.992;10.158;2023-04-06T09:06:35;2.53;;;1.70;;
7233;SDS011;3658;47.992;10.158;2023-04-06T09:09:04;6.90;;;1.97;;
7233;SDS011;3658;47.992;10.158;2023-04-06T09:11:41;2.10;;;1.90;;
7233;SDS011;3658;47.992;10.158;2023-04-06T09:14:12;3.50;;;1.90;;
7233;SDS011;3658;47.992;10.158;2023-04-06T09:16:40;2.10;;;1.90;;
7233;SDS011;3658;47.992;10.158;2023-04-06T09:19:08;2.47;;;2.00;;
7233;SDS011;3658;47.992;10.158;2023-04-06T09:21:36;4.50;;;1.97;;
7233;SDS011;3658;47.992;10.158;2023-04-06T09:24:06;3.37;;;1.87;;
7233;SDS011;3658;47.992;10.158;2023-04-06T09:26:43;2.77;;;1.83;;
7233;SDS011;3658;47.992;10.158;2023-04-06T09:29:21;4.63;;;1.87;;
7233;SDS011;3658;47.992;10.158;2023-04-06T09:31:51;2.87;;;2.00;;
7233;SDS011;3658;47.992;10.158;2023-04-06T09:34:21;4.27;;;2.10;;
7233;SDS011;3658;47.992;10.158;2023-04-06T09:36:49;4.33;;;3.07;;
7233;SDS011;3658;47.992;10.158;2023-04-06T09:39:20;5.80;;;4.27;;
7233;SDS011;3658;47.992;10.158;2023-04-06T09:41:49;4.10;;;3.33;;
7233;SDS011;3658;47.992;10.158;2023-04-06T09:44:18;6.10;;;3.63;;
7233;SDS011;3658;47.992;10.158;2023-04-06T09:46:45;5.13;;;3.20;;
7233;SDS011;3658;47.992;10.158;2023-04-06T09:49:13;3.33;;;2.87;;
7233;SDS011;3658;47.992;10.158;2023-04-06T09:51:43;2.63;;;2.43;;
7233;SDS011;3658;47.992;10.158;2023-04-06T09:54:15;3.10;;;2.30;;
7233;SDS011;3658;47.992;10.158;2023-04-06T09:56:47;2.40;;;2.20;;
7233;SDS011;3658;47.992;10.158;2023-04-06T09:59:18;3.23;;;2.20;;
7233;SDS011;3658;47.992;10.158;2023-04-06T10:01:52;2.20;;;2.00;;
7233;SDS011;3658;47.992;10.158;2023-04-06T10:04:24;3.10;;;2.33;;
7233;SDS011;3658;47.992;10.158;2023-04-06T10:06:59;2.67;;;2.13;;
7233;SDS011;3658;47.992;10.158;2023-04-06T10:09:28;3.17;;;2.00;;
7233;SDS011;3658;47.992;10.158;2023-04-06T10:12:02;2.30;;;2.07;;
7233;SDS011;3658;47.992;10.158;2023-04-06T10:14:31;2.17;;;1.80;;
7233;SDS011;3658;47.992;10.158;2023-04-06T10:17:00;2.27;;;1.77;;
7233;SDS011;3658;47.992;10.158;2023-04-06T10:19:31;2.53;;;1.50;;
7233;SDS011;3658;47.992;10.158;2023-04-06T10:22:03;2.07;;;1.80;;
7233;SDS011;3658;47.992;10.158;2023-04-06T10:24:32;2.83;;;1.60;;
7233;SDS011;3658;47.992;10.158;2023-04-06T10:27:01;1.80;;;1.70;;
7233;SDS011;3658;47.992;10.158;2023-04-06T10:29:40;2.07;;;1.60;;
7233;SDS011;3658;47.992;10.158;2023-04-06T10:32:10;1.80;;;1.70;;
7233;SDS011;3658;47.992;10.158;2023-04-06T10:34:37;1.73;;;1.57;;
7233;SDS011;3658;47.992;10.158;2023-04-06T10:37:10;1.83;;;1.60;;
7233;SDS011;3658;47.992;10.158;2023-04-06T10:39:49;2.23;;;1.70;;
7233;SDS011;3658;47.992;10.158;2023-04-06T10:42:25;1.93;;;1.57;;
7233;SDS011;3658;47.992;10.158;2023-04-06T10:45:04;2.13;;;1.50;;
7233;SDS011;3658;47.992;10.158;2023-04-06T10:47:38;3.17;;;2.00;;
7233;SDS011;3658;47.992;10.158;2023-04-06T10:50:06;1.70;;;1.60;;
7233;SDS011;3658;47.992;10.158;2023-04-06T10:52:33;2.60;;;1.40;;
7233;SDS011;3658;47.992;10.158;2023-04-06T10:55:00;2.47;;;1.43;;
7233;SDS011;3658;47.992;10.158;2023-04-06T10:57:29;1.80;;;1.50;;
7233;SDS011;3658;47.992;10.158;2023-04-06T10:59:58;2.10;;;1.53;;
7233;SDS011;3658;47.992;10.158;2023-04-06T11:02:25;1.67;;;1.40;;
7233;SDS011;3658;47.992;10.158;2023-04-06T11:04:55;2.00;;;1.50;;
7233;SDS011;3658;47.992;10.158;2023-04-06T11:07:23;2.20;;;1.97;;
7233;SDS011;3658;47.992;10.158;2023-04-06T11:09:51;6.63;;;2.73;;
7233;SDS011;3658;47.992;10.158;2023-04-06T11:12:22;4.43;;;2.43;;
7233;SDS011;3658;47.992;10.158;2023-04-06T11:14:55;2.53;;;2.20;;
7233;SDS011;3658;47.992;10.158;2023-04-06T11:17:29;3.00;;;2.20;;
7233;SDS011;3658;47.992;10.158;2023-04-06T11:19:57;4.07;;;2.27;;
7233;SDS011;3658;47.992;10.158;2023-04-06T11:22:24;3.03;;;2.50;;
7233;SDS011;3658;47.992;10.158;2023-04-06T11:24:52;3.37;;;2.07;;
7233;SDS011;3658;47.992;10.158;2023-04-06T11:27:19;3.03;;;2.10;;
7233;SDS011;3658;47.992;10.158;2023-04-06T11:29:46;5.23;;;2.10;;
7233;SDS011;3658;47.992;10.158;2023-04-06T11:32:21;2.80;;;1.80;;
7233;SDS011;3658;47.992;10.158;2023-04-06T11:34:49;2.93;;;2.00;;
7233;SDS011;3658;47.992;10.158;2023-04-06T11:37:16;3.70;;;1.70;;
7233;SDS011;3658;47.992;10.158;2023-04-06T11:39:47;4.33;;;1.93;;
7233;SDS011;3658;47.992;10.158;2023-04-06T11:42:22;2.23;;;1.63;;
7233;SDS011;3658;47.992;10.158;2023-04-06T11:44:50;2.10;;;1.60;;
7233;SDS011;3658;47.992;10.158;2023-04-06T11:47:26;2.80;;;1.73;;
7233;SDS011;3658;47.992;10.158;2023-04-06T11:49:54;1.73;;;1.60;;
7233;SDS011;3658;47.992;10.158;2023-04-06T11:52:22;2.10;;;1.70;;
7233;SDS011;3658;47.992;10.158;2023-04-06T11:54:50;2.47;;;1.50;;
7233;SDS011;3658;47.992;10.158;2023-04-06T11:57:19;2.20;;;1.80;;
7233;SDS011;3658;47.992;10.158;2023-04-06T11:59:48;3.57;;;1.60;;
7233;SDS011;3658;47.992;10.158;2023-04-06T12:02:15;3.43;;;1.83;;
7233;SDS011;3658;47.992;10.158;2023-04-06T12:04:44;2.13;;;1.70;;
7233;SDS011;3658;47.992;10.158;2023-04-06T12:07:11;3.30;;;1.30;;
7233;SDS011;3658;47.992;10.158;2023-04-06T12:09:38;2.43;;;1.60;;
7233;SDS011;3658;47.992;10.158;2023-04-06T12:12:05;2.43;;;1.57;;
7233;SDS011;3658;47.992;10.158;2023-04-06T12:14:32;2.37;;;1.60;;
7233;SDS011;3658;47.992;10.158;2023-04-06T12:16:59;4.03;;;1.50;;
7233;SDS011;3658;47.992;10.158;2023-04-06T12:19:26;3.57;;;1.57;;
7233;SDS011;3658;47.992;10.158;2023-04-06T12:21:55;3.63;;;1.70;;
7233;SDS011;3658;47.992;10.158;2023-04-06T12:24:23;2.47;;;1.90;;
7233;SDS011;3658;47.992;10.158;2023-04-06T12:26:50;1.70;;;1.40;;
7233;SDS011;3658;47.992;10.158;2023-04-06T12:29:17;3.77;;;1.90;;
7233;SDS011;3658;47.992;10.158;2023-04-06T12:31:44;3.37;;;1.40;;
7233;SDS011;3658;47.992;10.158;2023-04-06T12:34:11;3.53;;;1.70;;
7233;SDS011;3658;47.992;10.158;2023-04-06T12:36:38;2.87;;;1.97;;
7233;SDS011;3658;47.992;10.158;2023-04-06T12:39:07;3.07;;;2.17;;
7233;SDS011;3658;47.992;10.158;2023-04-06T12:41:34;2.90;;;2.33;;
7233;SDS011;3658;47.992;10.158;2023-04-06T12:44:01;3.63;;;2.40;;
7233;SDS011;3658;47.992;10.158;2023-04-06T12:46:29;6.13;;;2.87;;
7233;SDS011;3658;47.992;10.158;2023-04-06T12:48:56;5.10;;;2.97;;
7233;SDS011;3658;47.992;10.158;2023-04-06T12:51:24;3.57;;;2.80;;
7233;SDS011;3658;47.992;10.158;2023-04-06T12:53:53;3.37;;;2.50;;
7233;SDS011;3658;47.992;10.158;2023-04-06T12:56:22;3.77;;;2.63;;
7233;SDS011;3658;47.992;10.158;2023-04-06T12:58:50;3.47;;;2.50;;
7233;SDS011;3658;47.992;10.158;2023-04-06T13:01:17;5.60;;;2.83;;
7233;SDS011;3658;47.992;10.158;2023-04-06T13:03:45;5.10;;;3.07;;
7233;SDS011;3658;47.992;10.158;2023-04-06T13:06:12;2.97;;;2.67;;
7233;SDS011;3658;47.992;10.158;2023-04-06T13:08:40;4.83;;;2.00;;
7233;SDS011;3658;47.992;10.158;2023-04-06T13:11:07;2.97;;;2.20;;
7233;SDS011;3658;47.992;10.158;2023-04-06T13:13:36;2.67;;;2.10;;
7233;SDS011;3658;47.992;10.158;2023-04-06T13:16:04;2.70;;;1.93;;
7233;SDS011;3658;47.992;10.158;2023-04-06T13:18:33;4.90;;;2.03;;
7233;SDS011;3658;47.992;10.158;2023-04-06T13:21:03;3.77;;;2.30;;
7233;SDS011;3658;47.992;10.158;2023-04-06T13:23:30;1.67;;;1.57;;
7233;SDS011;3658;47.992;10.158;2023-04-06T13:25:58;2.87;;;1.83;;
7233;SDS011;3658;47.992;10.158;2023-04-06T13:28:26;2.43;;;1.70;;
7233;SDS011;3658;47.992;10.158;2023-04-06T13:30:55;2.27;;;1.83;;
7233;SDS011;3658;47.992;10.158;2023-04-06T13:33:24;1.90;;;1.50;;
7233;SDS011;3658;47.992;10.158;2023-04-06T13:35:51;2.00;;;1.70;;
7233;SDS011;3658;47.992;10.158;2023-04-06T13:38:18;2.67;;;1.50;;
7233;SDS011;3658;47.992;10.158;2023-04-06T13:40:45;4.50;;;1.67;;
7233;SDS011;3658;47.992;10.158;2023-04-06T13:43:12;2.93;;;1.50;;
7233;SDS011;3658;47.992;10.158;2023-04-06T13:45:40;3.17;;;1.40;;
7233;SDS011;3658;47.992;10.158;2023-04-06T13:48:08;2.73;;;1.57;;
7233;SDS011;3658;47.992;10.158;2023-04-06T13:50:35;2.00;;;1.43;;
7233;SDS011;3658;47.992;10.158;2023-04-06T13:53:02;2.80;;;1.50;;
7233;SDS011;3658;47.992;10.158;2023-04-06T13:55:29;2.40;;;1.57;;
7233;SDS011;3658;47.992;10.158;2023-04-06T13:57:56;1.50;;;1.33;;
7233;SDS011;3658;47.992;10.158;2023-04-06T14:00:23;2.67;;;1.63;;
7233;SDS011;3658;47.992;10.158;2023-04-06T14:02:50;2.70;;;1.43;;
7233;SDS011;3658;47.992;10.158;2023-04-06T14:05:21;1.33;;;1.23;;
7233;SDS011;3658;47.992;10.158;2023-04-06T14:07:48;2.63;;;1.40;;
7233;SDS011;3658;47.992;10.158;2023-04-06T14:10:16;1.50;;;1.37;;
7233;SDS011;3658;47.992;10.158;2023-04-06T14:12:43;1.50;;;1.40;;
7233;SDS011;3658;47.992;10.158;2023-04-06T14:15:11;1.70;;;1.50;;
7233;SDS011;3658;47.992;10.158;2023-04-06T14:17:38;2.63;;;1.60;;
7233;SDS011;3658;47.992;10.158;2023-04-06T14:20:05;3.33;;;1.30;;
7233;SDS011;3658;47.992;10.158;2023-04-06T14:22:40;1.50;;;1.40;;
7233;SDS011;3658;47.992;10.158;2023-04-06T14:25:08;1.97;;;1.30;;
7233;SDS011;3658;47.992;10.158;2023-04-06T14:27:36;1.50;;;1.40;;
7233;SDS011;3658;47.992;10.158;2023-04-06T14:30:03;3.90;;;1.47;;
7233;SDS011;3658;47.992;10.158;2023-04-06T14:32:31;1.50;;;1.30;;
7233;SDS011;3658;47.992;10.158;2023-04-06T14:34:58;1.43;;;1.23;;
7233;SDS011;3658;47.992;10.158;2023-04-06T14:37:25;1.40;;;1.30;;
7233;SDS011;3658;47.992;10.158;2023-04-06T14:39:54;1.80;;;1.70;;
7233;SDS011;3658;47.992;10.158;2023-04-06T14:42:21;2.13;;;1.40;;
7233;SDS011;3658;47.992;10.158;2023-04-06T14:44:48;2.10;;;1.30;;
7233;SDS011;3658;47.992;10.158;2023-04-06T14:47:15;1.53;;;1.37;;
7233;SDS011;3658;47.992;10.158;2023-04-06T14:49:45;1.70;;;1.40;;
7233;SDS011;3658;47.992;10.158;2023-04-06T14:52:12;4.10;;;1.43;;
7233;SDS011;3658;47.992;10.158;2023-04-06T14:54:39;2.03;;;1.40;;
7233;SDS011;3658;47.992;10.158;2023-04-06T14:57:07;2.60;;;1.50;;
7233;SDS011;3658;47.992;10.158;2023-04-06T14:59:35;1.20;;;1.10;;
7233;SDS011;3658;47.992;10.158;2023-04-06T15:02:02;2.40;;;1.33;;
7233;SDS011;3658;47.992;10.158;2023-04-06T15:04:29;1.37;;;1.20;;